createdAt,value
2018-05-26T00:00:18.661Z,19.20
2018-05-26T00:02:46.166Z,19.20
2018-05-26T00:05:14.467Z,19.20
2018-05-26T00:07:41.985Z,19.10
2018-05-26T00:10:10.307Z,19.30
2018-05-26T00:12:37.825Z,19.30
2018-05-26T00:15:06.105Z,19.40
2018-05-26T00:17:33.646Z,19.40
2018-05-26T00:20:01.163Z,19.50
2018-05-26T00:22:28.702Z,19.40
2018-05-26T00:24:56.244Z,19.40
2018-05-26T00:27:23.774Z,19.40
2018-05-26T00:29:51.320Z,19.40
2018-05-26T00:32:18.852Z,19.40
2018-05-26T00:34:46.390Z,19.50
2018-05-26T00:37:13.898Z,19.50
2018-05-26T00:39:41.435Z,19.50
2018-05-26T00:42:08.983Z,19.50
2018-05-26T00:44:36.501Z,19.40
2018-05-26T00:47:04.809Z,19.30
2018-05-26T00:49:32.332Z,19.30
2018-05-26T00:52:00.628Z,19.20
2018-05-26T00:54:28.181Z,19.20
2018-05-26T00:56:55.708Z,19.10
2018-05-26T00:59:23.264Z,19.10
2018-05-26T01:01:50.785Z,19.00
2018-05-26T01:04:18.301Z,18.90
2018-05-26T01:06:46.598Z,18.90
2018-05-26T01:09:14.124Z,18.80
2018-05-26T01:11:42.434Z,18.90
2018-05-26T01:14:09.959Z,18.80
2018-05-26T01:16:38.233Z,18.90
2018-05-26T01:19:06.565Z,18.90
2018-05-26T01:21:34.111Z,18.80
2018-05-26T01:24:01.658Z,18.90
2018-05-26T01:26:29.183Z,18.80
2018-05-26T01:28:56.693Z,18.70
2018-05-26T01:31:24.219Z,18.70
2018-05-26T01:33:52.527Z,18.70
2018-05-26T01:36:20.079Z,18.60
2018-05-26T01:38:47.602Z,18.70
2018-05-26T01:41:15.908Z,18.60
2018-05-26T01:43:43.461Z,18.50
2018-05-26T01:46:10.987Z,18.60
2018-05-26T01:48:39.315Z,18.60
2018-05-26T01:51:06.836Z,18.50
2018-05-26T01:53:35.117Z,18.50
2018-05-26T01:56:03.509Z,18.60
2018-05-26T01:58:31.019Z,18.50
2018-05-26T02:00:58.556Z,18.50
2018-05-26T02:03:26.079Z,18.50
2018-05-26T02:05:53.590Z,18.50
2018-05-26T02:08:21.118Z,18.40
2018-05-26T02:10:48.647Z,18.20
2018-05-26T02:13:16.199Z,18.20
2018-05-26T02:15:44.469Z,18.10
2018-05-26T02:18:12.760Z,18.10
2018-05-26T02:20:40.355Z,18.00
2018-05-26T02:23:07.889Z,18.00
2018-05-26T02:25:35.446Z,17.80
2018-05-26T02:28:02.982Z,17.60
2018-05-26T02:30:31.268Z,17.60
2018-05-26T02:32:58.802Z,17.50
2018-05-26T02:35:27.109Z,17.40
2018-05-26T02:37:54.690Z,17.40
2018-05-26T02:40:22.206Z,17.50
2018-05-26T02:42:50.710Z,17.30
2018-05-26T02:45:18.263Z,17.30
2018-05-26T02:47:45.808Z,17.10
2018-05-26T02:50:14.122Z,17.10
2018-05-26T02:52:41.673Z,17.00
2018-05-26T02:55:09.189Z,17.20
2018-05-26T02:57:38.417Z,17.10
2018-05-26T03:00:05.959Z,17.00
2018-05-26T03:02:35.250Z,17.00
2018-05-26T03:05:09.244Z,16.90
2018-05-26T03:07:42.472Z,16.90
2018-05-26T03:10:15.719Z,17.00
2018-05-26T03:12:48.907Z,16.80
2018-05-26T03:15:15.960Z,16.60
2018-05-26T03:17:57.012Z,16.50
2018-05-26T03:20:24.563Z,16.30
2018-05-26T03:22:52.128Z,16.30
2018-05-26T03:25:19.674Z,16.20
2018-05-26T03:27:47.202Z,16.00
2018-05-26T03:30:14.717Z,16.00
2018-05-26T03:32:42.282Z,16.10
2018-05-26T03:35:10.584Z,16.20
2018-05-26T03:37:38.862Z,16.20
2018-05-26T03:40:07.164Z,16.10
2018-05-26T03:42:34.742Z,16.10
2018-05-26T03:45:02.304Z,16.00
2018-05-26T03:47:29.816Z,16.00
2018-05-26T03:49:58.142Z,16.20
2018-05-26T03:52:25.757Z,16.20
2018-05-26T03:58:13.636Z,16.20
2018-05-26T04:00:41.509Z,16.20
2018-05-26T04:03:09.064Z,16.20
2018-05-26T04:05:36.597Z,16.20
2018-05-26T04:08:04.123Z,16.10
2018-05-26T04:10:31.633Z,16.10
2018-05-26T04:12:59.167Z,16.20
2018-05-26T04:15:27.448Z,16.30
2018-05-26T04:17:54.959Z,16.30
2018-05-26T04:20:22.512Z,16.40
2018-05-26T04:22:50.039Z,16.40
2018-05-26T04:25:17.558Z,16.50
2018-05-26T04:27:45.877Z,16.50
2018-05-26T04:30:13.425Z,16.40
2018-05-26T04:32:40.937Z,16.60
2018-05-26T04:35:08.471Z,16.60
2018-05-26T04:37:36.010Z,16.60
2018-05-26T04:40:03.561Z,16.70
2018-05-26T04:42:31.082Z,16.70
2018-05-26T04:44:59.375Z,16.70
2018-05-26T04:47:27.699Z,16.80
2018-05-26T04:49:55.237Z,16.70
2018-05-26T04:52:22.789Z,16.90
2018-05-26T04:54:50.363Z,16.90
2018-05-26T04:57:17.890Z,16.90
2018-05-26T04:59:46.186Z,16.80
2018-05-26T05:02:13.714Z,16.80
2018-05-26T05:04:42.043Z,16.80
2018-05-26T05:07:09.573Z,16.70
2018-05-26T05:09:37.093Z,16.90
2018-05-26T05:12:04.639Z,17.00
2018-05-26T05:14:32.168Z,16.90
2018-05-26T05:16:59.727Z,16.90
2018-05-26T05:19:27.247Z,17.00
2018-05-26T05:21:55.555Z,17.10
2018-05-26T05:24:24.091Z,17.10
2018-05-26T05:26:52.570Z,17.20
2018-05-26T05:29:20.167Z,17.10
2018-05-26T05:31:47.693Z,17.30
2018-05-26T05:34:15.986Z,17.30
2018-05-26T05:36:43.532Z,17.30
2018-05-26T05:39:11.837Z,17.50
2018-05-26T05:41:39.380Z,17.40
2018-05-26T05:44:06.908Z,17.40
2018-05-26T05:46:34.432Z,17.40
2018-05-26T05:49:02.226Z,17.60
2018-05-26T05:51:29.856Z,17.80
2018-05-26T05:53:57.414Z,17.80
2018-05-26T05:56:24.973Z,18.00
2018-05-26T05:58:52.483Z,18.10
2018-05-26T06:01:20.808Z,18.30
2018-05-26T06:03:48.352Z,18.20
2018-05-26T06:06:15.895Z,18.30
2018-05-26T06:08:43.410Z,18.50
2018-05-26T06:11:10.938Z,18.60
2018-05-26T06:13:38.715Z,18.70
2018-05-26T06:16:06.273Z,18.80
2018-05-26T06:18:33.827Z,18.80
2018-05-26T06:21:01.747Z,18.90
2018-05-26T06:23:30.055Z,19.20
2018-05-26T06:25:57.627Z,19.10
2018-05-26T06:28:25.161Z,19.20
2018-05-26T06:30:52.704Z,19.30
2018-05-26T06:33:20.230Z,19.30
2018-05-26T06:35:47.763Z,19.50
2018-05-26T06:38:15.307Z,19.50
2018-05-26T06:40:42.933Z,19.60
2018-05-26T06:43:11.267Z,20.00
2018-05-26T06:45:38.781Z,19.90
2018-05-26T06:48:06.301Z,20.10
2018-05-26T06:50:33.863Z,20.30
2018-05-26T06:53:02.017Z,20.30
2018-05-26T06:55:29.562Z,20.50
2018-05-26T06:57:57.065Z,20.50
2018-05-26T07:00:25.387Z,20.80
2018-05-26T07:02:52.918Z,20.80
2018-05-26T07:05:20.435Z,20.80
2018-05-26T07:07:47.990Z,20.80
2018-05-26T07:10:15.605Z,20.90
2018-05-26T07:12:43.143Z,21.00
2018-05-26T07:15:10.696Z,21.20
2018-05-26T07:17:38.988Z,21.40
2018-05-26T07:20:06.565Z,21.30
2018-05-26T07:22:34.128Z,21.50
2018-05-26T07:25:01.646Z,21.60
2018-05-26T07:27:30.303Z,21.90
2018-05-26T07:29:57.821Z,21.90
2018-05-26T07:32:25.389Z,22.00
2018-05-26T07:34:52.915Z,22.10
2018-05-26T07:37:21.214Z,22.30
2018-05-26T07:39:49.734Z,22.30
2018-05-26T07:42:17.361Z,22.50
2018-05-26T07:44:44.912Z,22.60
2018-05-26T07:47:12.448Z,22.80
2018-05-26T07:49:39.973Z,22.90
2018-05-26T07:52:07.507Z,23.00
2018-05-26T07:54:35.046Z,23.20
2018-05-26T07:57:02.624Z,23.30
2018-05-26T07:59:30.166Z,23.40
2018-05-26T08:01:57.686Z,23.50
2018-05-26T08:04:25.991Z,23.80
2018-05-26T08:06:54.321Z,23.70
2018-05-26T08:09:21.850Z,23.70
2018-05-26T08:11:49.377Z,23.90
2018-05-26T08:14:16.953Z,24.10
2018-05-26T08:16:44.464Z,24.10
2018-05-26T08:19:12.001Z,24.20
2018-05-26T08:21:39.644Z,24.30
2018-05-26T08:24:07.201Z,24.40
2018-05-26T08:26:34.744Z,24.40
2018-05-26T08:29:02.281Z,24.50
2018-05-26T08:31:29.844Z,24.60
2018-05-26T08:33:57.374Z,24.50
2018-05-26T08:36:24.985Z,24.60
2018-05-26T08:38:52.549Z,24.80
2018-05-26T08:41:20.115Z,24.60
2018-05-26T08:43:47.669Z,24.50
2018-05-26T08:46:15.184Z,24.50
2018-05-26T08:48:43.468Z,24.60
2018-05-26T08:51:11.789Z,24.80
2018-05-26T08:53:39.316Z,24.70
2018-05-26T08:56:06.883Z,25.00
2018-05-26T08:58:34.445Z,25.10
2018-05-26T09:01:01.961Z,25.20
2018-05-26T09:03:30.262Z,25.40
2018-05-26T09:05:57.821Z,25.30
2018-05-26T09:08:25.342Z,25.40
2018-05-26T09:10:52.956Z,25.40
2018-05-26T09:13:20.476Z,25.60
2018-05-26T09:15:48.752Z,25.80
2018-05-26T09:18:18.398Z,25.90
2018-05-26T09:20:45.923Z,25.80
2018-05-26T09:23:14.241Z,26.10
2018-05-26T09:25:41.890Z,26.00
2018-05-26T09:28:09.477Z,26.10
2018-05-26T09:30:37.136Z,26.40
2018-05-26T09:33:04.666Z,26.40
2018-05-26T09:35:32.216Z,26.50
2018-05-26T09:37:59.737Z,26.50
2018-05-26T09:40:28.088Z,26.50
2018-05-26T09:42:55.626Z,26.50
2018-05-26T09:45:23.151Z,26.80
2018-05-26T09:47:51.465Z,27.00
2018-05-26T09:50:18.997Z,26.90
2018-05-26T09:52:46.518Z,27.00
2018-05-26T09:55:14.051Z,27.00
2018-05-26T09:57:41.576Z,27.10
2018-05-26T10:00:09.124Z,27.10
2018-05-26T10:02:37.398Z,27.40
2018-05-26T10:05:04.920Z,27.30
2018-05-26T10:07:32.469Z,27.40
2018-05-26T10:10:00.013Z,27.60
2018-05-26T10:12:27.562Z,27.70
2018-05-26T10:14:55.089Z,27.80
2018-05-26T10:17:23.390Z,27.80
2018-05-26T10:19:50.999Z,27.80
2018-05-26T10:22:18.507Z,27.90
2018-05-26T10:24:46.055Z,28.00
2018-05-26T10:27:13.593Z,28.10
2018-05-26T10:29:41.899Z,27.90
2018-05-26T10:32:09.498Z,27.80
2018-05-26T10:34:37.035Z,27.70
2018-05-26T10:37:04.686Z,28.00
2018-05-26T10:39:32.211Z,28.20
2018-05-26T10:42:00.517Z,28.60
2018-05-26T10:44:28.073Z,28.60
2018-05-26T10:46:55.611Z,28.80
2018-05-26T10:49:23.164Z,28.90
2018-05-26T10:51:51.390Z,28.90
2018-05-26T10:54:18.992Z,28.80
2018-05-26T10:56:46.624Z,29.00
2018-05-26T10:59:14.195Z,29.20
2018-05-26T11:01:42.526Z,29.20
2018-05-26T11:04:10.084Z,29.10
2018-05-26T11:06:44.408Z,29.30
2018-05-26T11:09:11.988Z,29.50
2018-05-26T11:11:40.044Z,29.70
2018-05-26T11:14:09.079Z,29.80
2018-05-26T11:16:36.874Z,29.80
2018-05-26T11:19:06.889Z,29.80
2018-05-26T11:21:36.309Z,29.80
2018-05-26T11:24:04.375Z,29.80
2018-05-26T11:26:32.064Z,29.90
2018-05-26T11:28:59.762Z,30.10
2018-05-26T11:31:28.344Z,30.20
2018-05-26T11:33:56.645Z,30.10
2018-05-26T11:36:26.023Z,30.10
2018-05-26T11:38:54.475Z,30.30
2018-05-26T11:41:23.946Z,30.20
2018-05-26T11:43:51.727Z,30.20
2018-05-26T11:46:19.583Z,30.40
2018-05-26T11:48:48.499Z,30.40
2018-05-26T11:51:16.120Z,30.60
2018-05-26T11:53:43.808Z,30.50
2018-05-26T11:56:11.444Z,30.40
2018-05-26T11:58:38.988Z,30.40
2018-05-26T12:01:06.549Z,30.40
2018-05-26T12:03:34.286Z,30.40
2018-05-26T12:06:02.573Z,30.60
2018-05-26T12:08:33.743Z,30.90
2018-05-26T12:11:01.290Z,30.80
2018-05-26T12:13:28.829Z,30.80
2018-05-26T12:15:57.163Z,30.80
2018-05-26T12:18:24.688Z,30.70
2018-05-26T12:20:55.785Z,30.80
2018-05-26T12:23:23.405Z,31.10
2018-05-26T12:25:51.710Z,31.60
2018-05-26T12:28:19.576Z,32.00
2018-05-26T12:30:47.159Z,32.50
2018-05-26T12:33:15.970Z,33.00
2018-05-26T12:35:43.984Z,33.60
2018-05-26T12:38:11.536Z,34.50
2018-05-26T12:40:39.161Z,35.10
2018-05-26T12:43:07.829Z,36.30
2018-05-26T12:45:36.095Z,36.20
2018-05-26T12:48:04.371Z,36.30
2018-05-26T12:50:33.520Z,36.40
2018-05-26T12:53:01.355Z,36.40
2018-05-26T12:55:30.616Z,37.10
2018-05-26T12:57:58.405Z,37.00
2018-05-26T13:00:27.116Z,37.60
2018-05-26T13:02:54.684Z,37.50
2018-05-26T13:05:22.217Z,37.80
2018-05-26T13:07:50.679Z,38.80
2018-05-26T13:10:18.316Z,38.80
2018-05-26T13:12:46.529Z,39.00
2018-05-26T13:15:14.871Z,39.20
2018-05-26T13:17:43.160Z,39.10
2018-05-26T13:20:10.798Z,39.10
2018-05-26T13:22:38.606Z,39.90
2018-05-26T13:25:07.213Z,39.20
2018-05-26T13:27:35.434Z,39.30
2018-05-26T13:30:04.610Z,38.30
2018-05-26T13:32:32.139Z,38.30
2018-05-26T13:34:59.680Z,39.00
2018-05-26T13:37:27.999Z,39.00
2018-05-26T13:39:55.508Z,38.90
2018-05-26T13:42:23.807Z,38.80
2018-05-26T13:44:51.374Z,38.70
2018-05-26T13:47:18.895Z,39.10
2018-05-26T13:49:47.222Z,39.60
2018-05-26T13:52:14.893Z,39.60
2018-05-26T13:54:42.458Z,40.10
2018-05-26T13:57:09.973Z,38.90
2018-05-26T13:59:37.517Z,37.80
2018-05-26T14:02:05.817Z,37.30
2018-05-26T14:04:33.394Z,37.20
2018-05-26T14:07:01.044Z,37.80
2018-05-26T14:09:28.576Z,38.80
2018-05-26T14:11:56.130Z,39.70
2018-05-26T14:14:24.546Z,41.10
2018-05-26T14:16:52.073Z,41.00
2018-05-26T14:19:19.601Z,41.50
2018-05-26T14:21:47.154Z,41.80
2018-05-26T14:24:14.772Z,41.70
2018-05-26T14:26:42.328Z,40.80
2018-05-26T14:29:09.887Z,40.80
2018-05-26T14:31:37.436Z,40.80
2018-05-26T14:34:04.951Z,40.60
2018-05-26T14:36:32.586Z,41.10
2018-05-26T14:39:00.125Z,41.40
2018-05-26T14:41:27.695Z,41.10
2018-05-26T14:43:55.260Z,41.80
2018-05-26T14:46:22.773Z,41.70
2018-05-26T14:48:51.179Z,40.90
2018-05-26T14:51:18.753Z,40.80
2018-05-26T14:53:46.323Z,41.70
2018-05-26T14:56:13.867Z,42.80
2018-05-26T14:58:41.443Z,42.20
2018-05-26T15:01:08.999Z,42.70
2018-05-26T15:03:36.509Z,42.50
2018-05-26T15:06:04.057Z,42.40
2018-05-26T15:08:32.344Z,42.70
2018-05-26T15:10:59.876Z,42.60
2018-05-26T15:13:27.494Z,41.80
2018-05-26T15:15:55.733Z,41.50
2018-05-26T15:18:24.037Z,41.10
2018-05-26T15:20:52.004Z,41.10
2018-05-26T15:23:19.575Z,39.70
2018-05-26T15:25:47.096Z,38.30
2018-05-26T15:28:15.427Z,36.90
2018-05-26T15:30:42.991Z,36.90
2018-05-26T15:33:10.629Z,37.80
2018-05-26T15:35:38.290Z,39.30
2018-05-26T15:38:05.843Z,39.40
2018-05-26T15:40:33.368Z,39.80
2018-05-26T15:43:01.683Z,38.60
2018-05-26T15:45:29.304Z,38.50
2018-05-26T15:47:57.616Z,35.80
2018-05-26T15:50:25.184Z,35.70
2018-05-26T15:52:52.725Z,35.20
2018-05-26T15:55:20.296Z,35.00
2018-05-26T15:57:47.943Z,35.80
2018-05-26T16:00:15.528Z,37.00
2018-05-26T16:02:43.303Z,38.00
2018-05-26T16:05:10.927Z,39.40
2018-05-26T16:07:38.502Z,39.30
2018-05-26T16:10:06.036Z,40.40
2018-05-26T16:12:33.612Z,41.20
2018-05-26T16:15:01.468Z,41.70
2018-05-26T16:17:28.995Z,41.70
2018-05-26T16:19:57.319Z,41.10
2018-05-26T16:22:24.880Z,41.10
2018-05-26T16:24:52.422Z,40.90
2018-05-26T16:27:20.411Z,41.20
2018-05-26T16:29:47.945Z,41.40
2018-05-26T16:32:15.514Z,41.80
2018-05-26T16:34:43.072Z,40.80
2018-05-26T16:37:10.651Z,39.10
2018-05-26T16:39:39.310Z,37.90
2018-05-26T16:42:06.850Z,36.70
2018-05-26T16:44:34.369Z,38.00
2018-05-26T16:47:01.899Z,38.70
2018-05-26T16:49:29.475Z,39.30
2018-05-26T16:51:57.116Z,39.80
2018-05-26T16:54:24.658Z,39.50
2018-05-26T16:56:52.220Z,39.80
2018-05-26T16:59:19.758Z,40.40
2018-05-26T17:01:48.066Z,39.70
2018-05-26T17:04:15.617Z,39.70
2018-05-26T17:06:43.149Z,39.60
2018-05-26T17:09:11.425Z,40.20
2018-05-26T17:11:39.771Z,40.30
2018-05-26T17:14:07.288Z,40.20
2018-05-26T17:16:34.893Z,40.00
2018-05-26T17:19:02.534Z,40.00
2018-05-26T17:21:30.079Z,40.00
2018-05-26T17:23:57.648Z,39.50
2018-05-26T17:26:25.293Z,39.50
2018-05-26T17:28:52.844Z,39.60
2018-05-26T17:31:20.386Z,39.10
2018-05-26T17:33:47.944Z,38.80
2018-05-26T17:36:15.535Z,38.20
2018-05-26T17:38:43.431Z,37.80
2018-05-26T17:41:11.775Z,37.20
2018-05-26T17:43:39.287Z,37.20
2018-05-26T17:46:07.602Z,37.30
2018-05-26T17:48:35.160Z,37.30
2018-05-26T17:51:02.701Z,37.30
2018-05-26T17:53:30.284Z,37.30
2018-05-26T17:55:57.935Z,36.50
2018-05-26T17:58:25.449Z,36.50
2018-05-26T18:00:53.747Z,36.20
2018-05-26T18:03:21.310Z,36.10
2018-05-26T18:05:48.836Z,36.00
2018-05-26T18:08:17.961Z,35.20
2018-05-26T18:10:45.564Z,35.20
2018-05-26T18:13:13.211Z,34.00
2018-05-26T18:15:40.733Z,33.30
2018-05-26T18:18:09.060Z,32.30
2018-05-26T18:20:36.598Z,32.20
2018-05-26T18:23:04.174Z,31.90
2018-05-26T18:25:31.727Z,31.80
2018-05-26T18:27:59.291Z,31.10
2018-05-26T18:30:26.850Z,31.20
2018-05-26T18:32:54.482Z,31.60
2018-05-26T18:35:21.957Z,31.40
2018-05-26T18:37:49.526Z,31.70
2018-05-26T18:40:17.180Z,32.00
2018-05-26T18:42:44.740Z,32.20
2018-05-26T18:45:12.250Z,32.10
2018-05-26T18:47:40.582Z,32.10
2018-05-26T18:50:08.123Z,32.00
2018-05-26T18:52:35.633Z,31.50
2018-05-26T18:55:03.245Z,31.10
2018-05-26T18:57:30.836Z,30.50
2018-05-26T18:59:58.368Z,29.80
2018-05-26T19:02:25.923Z,29.30
2018-05-26T19:04:53.465Z,28.80
2018-05-26T19:07:21.040Z,28.50
2018-05-26T19:09:48.590Z,28.10
2018-05-26T19:12:16.254Z,27.70
2018-05-26T19:14:43.777Z,27.40
2018-05-26T19:17:12.111Z,26.60
2018-05-26T19:19:41.389Z,26.50
2018-05-26T19:22:08.905Z,26.40
2018-05-26T19:24:37.258Z,26.00
2018-05-26T19:27:04.796Z,25.90
2018-05-26T19:29:32.328Z,25.80
2018-05-26T19:31:59.894Z,25.50
2018-05-26T19:34:27.467Z,25.40
2018-05-26T19:36:55.016Z,25.10
2018-05-26T19:39:22.574Z,25.10
2018-05-26T19:41:50.107Z,24.90
2018-05-26T19:44:18.408Z,24.70
2018-05-26T19:46:45.956Z,24.60
2018-05-26T19:49:13.521Z,24.50
2018-05-26T19:51:41.053Z,24.20
2018-05-26T19:54:09.906Z,23.90
2018-05-26T19:56:38.263Z,23.70
2018-05-26T19:59:05.792Z,23.60
2018-05-26T20:01:33.369Z,23.70
2018-05-26T20:04:00.939Z,23.70
2018-05-26T20:06:28.516Z,23.40
2018-05-26T20:08:56.058Z,23.10
2018-05-26T20:11:23.616Z,22.90
2018-05-26T20:13:51.128Z,22.80
2018-05-26T20:16:19.559Z,22.50
2018-05-26T20:21:21.850Z,22.50
2018-05-26T20:23:49.398Z,22.50
2018-05-26T20:26:16.914Z,22.60
2018-05-26T20:28:45.331Z,22.50
2018-05-26T20:31:12.913Z,22.40
2018-05-26T20:33:40.477Z,22.40
2018-05-26T20:36:08.108Z,22.30
2018-05-26T20:38:35.650Z,22.30
2018-05-26T20:41:03.253Z,22.30
2018-05-26T20:43:30.816Z,22.30
2018-05-26T20:45:58.450Z,22.30
2018-05-26T20:48:25.997Z,22.10
2018-05-26T20:50:53.555Z,22.20
2018-05-26T20:53:21.129Z,22.10
2018-05-26T20:55:48.686Z,22.10
2018-05-26T20:58:16.239Z,22.10
2018-05-26T21:00:43.791Z,22.10
2018-05-26T21:03:12.299Z,22.00
2018-05-26T21:05:39.861Z,22.00
2018-05-26T21:08:07.405Z,21.90
2018-05-26T21:10:34.920Z,21.90
2018-05-26T21:13:03.323Z,21.70
2018-05-26T21:15:30.833Z,21.70
2018-05-26T21:17:58.470Z,21.70
2018-05-26T21:20:26.133Z,21.60
2018-05-26T21:22:53.674Z,21.60
2018-05-26T21:25:21.208Z,21.50
2018-05-26T21:27:48.801Z,21.30
2018-05-26T21:30:16.298Z,21.20
2018-05-26T21:32:44.774Z,21.20
2018-05-26T21:35:12.368Z,21.20
2018-05-26T21:37:39.948Z,21.10
2018-05-26T21:40:07.519Z,21.00
2018-05-26T21:42:35.485Z,20.90
2018-05-26T21:45:03.035Z,20.90
2018-05-26T21:47:30.557Z,21.00
2018-05-26T21:49:58.974Z,21.10
2018-05-26T21:52:26.548Z,21.00
2018-05-26T21:54:54.067Z,21.10
2018-05-26T21:57:21.644Z,21.20
2018-05-26T21:59:49.201Z,21.10
2018-05-26T22:02:16.727Z,21.00
2018-05-26T22:04:45.042Z,21.00
2018-05-26T22:07:12.590Z,20.90
2018-05-26T22:09:40.159Z,21.00
2018-05-26T22:12:07.716Z,21.10
2018-05-26T22:14:35.229Z,21.10
2018-05-26T22:17:03.825Z,20.90
2018-05-26T22:19:32.222Z,20.90
2018-05-26T22:21:59.741Z,20.80
2018-05-26T22:24:28.086Z,20.90
2018-05-26T22:26:55.645Z,20.80
2018-05-26T22:29:23.247Z,20.70
2018-05-26T22:31:50.850Z,20.70
2018-05-26T22:34:18.519Z,20.70
2018-05-26T22:36:46.040Z,20.50
2018-05-26T22:39:13.579Z,20.40
2018-05-26T22:41:41.912Z,20.20
2018-05-26T22:44:10.188Z,20.10
2018-05-26T22:46:38.094Z,20.30
2018-05-26T22:52:31.044Z,20.40
2018-05-26T22:54:58.611Z,20.30
2018-05-26T22:57:26.132Z,20.30
2018-05-26T22:59:53.784Z,20.30
2018-05-26T23:02:21.355Z,20.30
2018-05-26T23:04:48.881Z,20.20
2018-05-26T23:07:17.195Z,19.80
2018-05-26T23:09:44.746Z,19.80
2018-05-26T23:12:12.257Z,19.70
2018-05-26T23:14:40.579Z,19.60
2018-05-26T23:17:08.143Z,19.50
2018-05-26T23:19:35.666Z,19.60
2018-05-26T23:22:03.997Z,19.70
2018-05-26T23:24:31.528Z,19.70
2018-05-26T23:26:59.055Z,19.80
2018-05-26T23:29:27.474Z,19.60
2018-05-26T23:31:55.004Z,19.60
2018-05-26T23:34:22.588Z,19.40
2018-05-26T23:36:50.155Z,19.30
2018-05-26T23:39:17.703Z,19.30
2018-05-26T23:41:45.261Z,19.40
2018-05-26T23:44:12.846Z,19.40
2018-05-26T23:46:40.368Z,19.30
2018-05-26T23:49:07.933Z,19.10
2018-05-26T23:51:35.487Z,18.90
2018-05-26T23:54:02.997Z,18.70
2018-05-26T23:56:30.507Z,18.70
2018-05-26T23:58:58.234Z,18.60
